Nissho Maru No.58 — JD3673 — position and weather

sailwx.info

Track history (hours):
 
Tides and Currents Weather Stations Pressure Air Temp Water Temp Dewpoint Dewpoint Depression Visibility Wind Speed Wind Dir Waves Ship Positions

Nissho Maru No.58

Last reported at 2017-Dec-11 10:31 UTC. Time now 2017-Dec-14 17:15 UTC.
Position N 35°38' E 139°45'.

Length 62 m; draft 3.9 m.

Type: Cargo ship. MMSI: 431005286.

Date/timePositionNaut miles runAvg speedWind from/ knotsBaromVisibWave heightAir tempDewpointWater temp
2017-Dec-11 10:31N 35°38' E 139°45'0 0.0
2017-Dec-11 10:30N 35°38' E 139°45'0 0.0
2017-Dec-11 09:41N 35°38' E 139°45'0 0.0
2017-Dec-11 09:24N 35°38' E 139°45'0 0.0
2017-Dec-11 09:00N 35°38' E 139°45'0 0.0
2017-Dec-11 08:30N 35°38' E 139°45'0 0.0
2017-Dec-11 08:00N 35°38' E 139°45'0 0.0
2017-Dec-11 07:30N 35°38' E 139°45'0 0.0
2017-Dec-11 06:59N 35°38' E 139°45'0 0.0
2017-Dec-11 06:20N 35°38' E 139°45'0 0.0
2017-Dec-11 05:20N 35°38' E 139°45'0 0.1
2017-Dec-11 04:52N 35°38' E 139°45'0 0.1
2017-Dec-11 04:23N 35°38' E 139°45'0 0.0
2017-Dec-11 03:55N 35°38' E 139°45'0 0.0
2017-Dec-11 03:23N 35°38' E 139°45'0 0.0
2017-Dec-11 00:10N 35°38' E 139°45'0 0.0
2017-Dec-11 00:00N 35°38' E 139°45'0 0.0
2017-Dec-10 23:30N 35°38' E 139°45'0 0.0
2017-Dec-10 22:59N 35°38' E 139°45'0 0.0
2017-Dec-10 22:29N 35°38' E 139°45'0 0.0
2017-Dec-10 15:36N 35°38' E 139°45'0 0.0
2017-Dec-10 15:23N 35°38' E 139°45'0 0.0
2017-Dec-10 14:59N 35°38' E 139°45'0 0.0
2017-Dec-10 14:29N 35°38' E 139°45'0 0.0
2017-Dec-10 14:00N 35°38' E 139°45'0 0.0
2017-Dec-10 13:28N 35°38' E 139°45'0 0.0
2017-Dec-10 13:00N 35°38' E 139°45'0 0.0
2017-Dec-10 12:30N 35°38' E 139°45'0 0.0
2017-Dec-10 12:00N 35°38' E 139°45'0 0.0
2017-Dec-10 11:30N 35°38' E 139°45'0 0.0
2017-Dec-10 11:00N 35°38' E 139°45'0 0.0
2017-Dec-10 10:29N 35°38' E 139°45'0 0.0
2017-Dec-10 09:59N 35°38' E 139°45'0 0.0
2017-Dec-10 07:00N 35°38' E 139°45'5 9.9
2017-Dec-10 06:30N 35°34' E 139°49'611.7
2017-Dec-10 06:00N 35°28' E 139°48'612.7
2017-Dec-10 05:30N 35°23' E 139°45'611.3
2017-Dec-10 05:00N 35°17' E 139°46'611.7
2017-Dec-10 04:30N 35°11' E 139°47'613.0
2017-Dec-10 04:00N 35°05' E 139°46'612.5
2017-Dec-10 03:30N 34°59' E 139°44'23 0.7
2017-Dec-08 17:34N 34°36' E 139°40'1112.7
2017-Dec-08 16:44N 34°46' E 139°43'1113.6
2017-Dec-08 15:57N 34°56' E 139°43'613.6
2017-Dec-08 15:30N 35°03' E 139°44'612.6
2017-Dec-08 15:00N 35°09' E 139°45'713.2
2017-Dec-08 14:31N 35°15' E 139°46'612.9
2017-Dec-08 14:01N 35°21' E 139°42'612.3
2017-Dec-08 13:31N 35°27' E 139°46'713.3
2017-Dec-08 12:59N 35°32' E 139°50'612.4
2017-Dec-08 12:30N 35°37' E 139°46'1 0.1
2017-Dec-08 06:18N 35°38' E 139°45'0 0.0
2017-Dec-08 05:48N 35°38' E 139°45'0 0.0
2017-Dec-08 03:59N 35°38' E 139°45'0 0.0
2017-Dec-08 03:00N 35°38' E 139°45'0 0.0
2017-Dec-08 02:30N 35°38' E 139°45'0 0.0
2017-Dec-08 01:44N 35°38' E 139°45'0 1.8
2017-Dec-08 01:30N 35°38' E 139°46'3 4.8
2017-Dec-08 00:59N 35°38' E 139°49'0 0.3
2017-Dec-08 00:28N 35°38' E 139°49'3 6.2
2017-Dec-08 00:00N 35°36' E 139°46'2 1.8
2017-Dec-07 22:56N 35°38' E 139°45'0 0.0
2017-Dec-07 20:12N 35°38' E 139°45'0 0.0
2017-Dec-07 19:49N 35°38' E 139°45'0 0.0
2017-Dec-07 19:29N 35°38' E 139°45'0 0.0
2017-Dec-07 18:57N 35°38' E 139°45'0 0.0
2017-Dec-07 18:28N 35°38' E 139°45'0 0.0
2017-Dec-07 17:54N 35°38' E 139°45'0 0.0
2017-Dec-07 17:26N 35°38' E 139°45'0 0.0
2017-Dec-07 16:57N 35°38' E 139°45'0 0.0
2017-Dec-07 16:29N 35°38' E 139°45'0 0.0
2017-Dec-07 16:00N 35°38' E 139°45'0 0.0
2017-Dec-07 15:27N 35°38' E 139°45'0 0.0
2017-Dec-07 15:00N 35°38' E 139°45'0 0.0
2017-Dec-07 14:21N 35°38' E 139°45'0 0.0
2017-Dec-07 13:58N 35°38' E 139°45'0 0.0
2017-Dec-07 13:30N 35°38' E 139°45'0 0.0
2017-Dec-07 12:50N 35°38' E 139°45'0 0.0
2017-Dec-07 12:00N 35°38' E 139°45'0 0.3
2017-Dec-07 11:30N 35°38' E 139°45'510.4
2017-Dec-07 11:00N 35°34' E 139°49'611.3
2017-Dec-07 10:31N 35°28' E 139°48'612.5
2017-Dec-07 10:01N 35°23' E 139°45'611.3
2017-Dec-07 09:31N 35°17' E 139°46'611.8
2017-Dec-07 09:00N 35°11' E 139°47'612.3
2017-Dec-07 08:31N 35°05' E 139°45'713.3
2017-Dec-07 08:00N 34°58' E 139°44'  
2017-Dec-04 09:05N 35°38' E 139°45'0 0.1
2017-Dec-04 08:58N 35°38' E 139°45'0 0.0
2017-Dec-04 08:31N 35°38' E 139°45'0 0.0
2017-Dec-04 08:00N 35°38' E 139°45'0 0.0
2017-Dec-04 07:30N 35°38' E 139°45'0 0.0
2017-Dec-04 07:00N 35°38' E 139°45'0 0.0
2017-Dec-04 06:15N 35°38' E 139°45'0 0.0
2017-Dec-04 06:00N 35°38' E 139°45'0 0.0
2017-Dec-04 04:15N 35°38' E 139°45'0 0.0
2017-Dec-04 03:59N 35°38' E 139°45'0 0.0
2017-Dec-04 03:30N 35°38' E 139°45'0 0.0
2017-Dec-04 03:00N 35°38' E 139°45'0 0.0
2017-Dec-04 02:28N 35°38' E 139°45'0 0.0
2017-Dec-04 02:00N 35°38' E 139°45'0 0.0
2017-Dec-04 01:30N 35°38' E 139°45'0 0.0
2017-Dec-04 01:00N 35°38' E 139°45'0 0.0
2017-Dec-04 00:30N 35°38' E 139°45'0 0.0
2017-Dec-04 00:00N 35°38' E 139°45'0 0.0
2017-Dec-03 22:29N 35°38' E 139°45'0 0.0
2017-Dec-03 22:00N 35°38' E 139°45'0 0.0
2017-Dec-03 21:04N 35°38' E 139°45'0 0.0
2017-Dec-03 20:54N 35°38' E 139°45'0 0.0
2017-Dec-03 20:30N 35°38' E 139°45'0 0.0
2017-Dec-03 19:59N 35°38' E 139°45'0 0.0
2017-Dec-03 17:57N 35°38' E 139°45'0 0.0
2017-Dec-03 17:29N 35°38' E 139°45'0 0.0
2017-Dec-03 17:00N 35°38' E 139°45'0 0.0
2017-Dec-03 16:30N 35°38' E 139°45'0 0.0
2017-Dec-03 16:00N 35°38' E 139°45'0 0.0
2017-Dec-03 15:30N 35°38' E 139°45'0 0.0
2017-Dec-03 12:39N 35°38' E 139°45'0 0.0
2017-Dec-03 12:26N 35°38' E 139°45'0 0.0
2017-Dec-03 11:59N 35°38' E 139°45'0 0.0
2017-Dec-03 11:28N 35°38' E 139°45'0 0.0
2017-Dec-03 10:59N 35°38' E 139°45'0 0.0
2017-Dec-03 10:30N 35°38' E 139°45'0 0.0
2017-Dec-03 09:58N 35°38' E 139°45'0 0.0
2017-Dec-03 03:40N 35°38' E 139°45'0 0.0
2017-Dec-03 03:30N 35°38' E 139°45'0 0.0
2017-Dec-03 02:57N 35°38' E 139°45'0 0.0
2017-Dec-03 02:30N 35°38' E 139°45'0 0.0
2017-Dec-03 02:00N 35°38' E 139°45'0 0.0
2017-Dec-03 01:30N 35°38' E 139°45'0 0.0
2017-Dec-03 00:59N 35°38' E 139°45'0 0.0
2017-Dec-03 00:30N 35°38' E 139°45'0 0.0
2017-Dec-03 00:00N 35°38' E 139°45'0 0.0
2017-Dec-02 23:30N 35°38' E 139°45'0 0.0
2017-Dec-02 23:00N 35°38' E 139°45'0 0.0
2017-Dec-02 22:25N 35°38' E 139°45'0 0.0
2017-Dec-02 17:13N 35°38' E 139°45'0 0.0
2017-Dec-02 17:00N 35°38' E 139°45'0 0.0
2017-Dec-02 16:30N 35°38' E 139°45'0 0.0
2017-Dec-02 16:00N 35°38' E 139°45'0 0.0
2017-Dec-02 15:30N 35°38' E 139°45'0 0.0
2017-Dec-02 15:00N 35°38' E 139°45'0 0.0
2017-Dec-02 14:30N 35°38' E 139°45'0 0.0
2017-Dec-02 14:00N 35°38' E 139°45'0 0.0
2017-Dec-02 13:30N 35°38' E 139°45'0 0.0
2017-Dec-02 13:00N 35°38' E 139°45'0 0.0
2017-Dec-02 12:29N 35°38' E 139°45'0 0.0
2017-Dec-02 12:00N 35°38' E 139°45'0 0.0
2017-Dec-02 11:29N 35°38' E 139°45'0 0.0
2017-Dec-02 11:00N 35°38' E 139°45'0 0.0
2017-Dec-02 10:28N 35°38' E 139°45'0 0.0
2017-Dec-02 10:00N 35°38' E 139°45'0 0.0
2017-Dec-02 09:28N 35°38' E 139°45'0 0.0
2017-Dec-02 08:53N 35°38' E 139°45'0 0.6
2017-Dec-02 08:30N 35°38' E 139°45'4 7.7
2017-Dec-02 08:00N 35°35' E 139°48'5 9.9
2017-Dec-02 07:31N 35°30' E 139°48'612.2
2017-Dec-02 07:00N 35°24' E 139°46'611.7
2017-Dec-02 06:30N 35°18' E 139°44'611.8
2017-Dec-02 06:01N 35°13' E 139°47'612.2
2017-Dec-02 05:30N 35°07' E 139°46'712.9
2017-Dec-02 05:00N 35°01' E 139°44'2412.8
2017-Dec-02 03:06N 34°37' E 139°39'4 0.4
2017-Dec-01 17:52N 34°33' E 139°39'1313.2
2017-Dec-01 16:51N 34°46' E 139°42'1013.5
2017-Dec-01 16:09N 34°56' E 139°43'312.6
2017-Dec-01 15:56N 34°58' E 139°43'612.4
2017-Dec-01 15:30N 35°04' E 139°44'613.0
2017-Dec-01 15:01N 35°10' E 139°46'612.2
2017-Dec-01 14:30N 35°16' E 139°46'612.0
2017-Dec-01 14:01N 35°21' E 139°42'611.9
2017-Dec-01 13:31N 35°27' E 139°46'612.6
2017-Dec-01 13:00N 35°32' E 139°50'612.1
2017-Dec-01 12:30N 35°37' E 139°46'1 2.3
2017-Dec-01 12:01N 35°38' E 139°45'0 0.0
2017-Dec-01 11:31N 35°38' E 139°45'0 0.0
2017-Dec-01 11:01N 35°38' E 139°45'  
Track history (hours):
 
Tides and Currents Weather Stations Pressure Air Temp Water Temp Dewpoint Dewpoint Depression Visibility Wind Speed Wind Dir Waves Ship Positions

Nissho Maru No.58

Last reported at 2017-Dec-11 10:31 UTC. Time now 2017-Dec-14 17:15 UTC.
Position N 35°38' E 139°45'.

Length 62 m; draft 3.9 m.

Type: Cargo ship. MMSI: 431005286.

Date/timePositionNaut miles runAvg speedWind from/ knotsBaromVisibWave heightAir tempDewpointWater temp
2017-Dec-11 10:31N 35°38' E 139°45'0 0.0
2017-Dec-11 10:30N 35°38' E 139°45'0 0.0
2017-Dec-11 09:41N 35°38' E 139°45'0 0.0
2017-Dec-11 09:24N 35°38' E 139°45'0 0.0
2017-Dec-11 09:00N 35°38' E 139°45'0 0.0
2017-Dec-11 08:30N 35°38' E 139°45'0 0.0
2017-Dec-11 08:00N 35°38' E 139°45'0 0.0
2017-Dec-11 07:30N 35°38' E 139°45'0 0.0
2017-Dec-11 06:59N 35°38' E 139°45'0 0.0
2017-Dec-11 06:20N 35°38' E 139°45'0 0.0
2017-Dec-11 05:20N 35°38' E 139°45'0 0.1
2017-Dec-11 04:52N 35°38' E 139°45'0 0.1
2017-Dec-11 04:23N 35°38' E 139°45'0 0.0
2017-Dec-11 03:55N 35°38' E 139°45'0 0.0
2017-Dec-11 03:23N 35°38' E 139°45'0 0.0
2017-Dec-11 00:10N 35°38' E 139°45'0 0.0
2017-Dec-11 00:00N 35°38' E 139°45'0 0.0
2017-Dec-10 23:30N 35°38' E 139°45'0 0.0
2017-Dec-10 22:59N 35°38' E 139°45'0 0.0
2017-Dec-10 22:29N 35°38' E 139°45'0 0.0
2017-Dec-10 15:36N 35°38' E 139°45'0 0.0
2017-Dec-10 15:23N 35°38' E 139°45'0 0.0
2017-Dec-10 14:59N 35°38' E 139°45'0 0.0
2017-Dec-10 14:29N 35°38' E 139°45'0 0.0
2017-Dec-10 14:00N 35°38' E 139°45'0 0.0
2017-Dec-10 13:28N 35°38' E 139°45'0 0.0
2017-Dec-10 13:00N 35°38' E 139°45'0 0.0
2017-Dec-10 12:30N 35°38' E 139°45'0 0.0
2017-Dec-10 12:00N 35°38' E 139°45'0 0.0
2017-Dec-10 11:30N 35°38' E 139°45'0 0.0
2017-Dec-10 11:00N 35°38' E 139°45'0 0.0
2017-Dec-10 10:29N 35°38' E 139°45'0 0.0
2017-Dec-10 09:59N 35°38' E 139°45'0 0.0
2017-Dec-10 07:00N 35°38' E 139°45'5 9.9
2017-Dec-10 06:30N 35°34' E 139°49'611.7
2017-Dec-10 06:00N 35°28' E 139°48'612.7
2017-Dec-10 05:30N 35°23' E 139°45'611.3
2017-Dec-10 05:00N 35°17' E 139°46'611.7
2017-Dec-10 04:30N 35°11' E 139°47'613.0
2017-Dec-10 04:00N 35°05' E 139°46'612.5
2017-Dec-10 03:30N 34°59' E 139°44'23 0.7
2017-Dec-08 17:34N 34°36' E 139°40'1112.7
2017-Dec-08 16:44N 34°46' E 139°43'1113.6
2017-Dec-08 15:57N 34°56' E 139°43'613.6
2017-Dec-08 15:30N 35°03' E 139°44'612.6
2017-Dec-08 15:00N 35°09' E 139°45'713.2
2017-Dec-08 14:31N 35°15' E 139°46'612.9
2017-Dec-08 14:01N 35°21' E 139°42'612.3
2017-Dec-08 13:31N 35°27' E 139°46'713.3
2017-Dec-08 12:59N 35°32' E 139°50'612.4
2017-Dec-08 12:30N 35°37' E 139°46'1 0.1
2017-Dec-08 06:18N 35°38' E 139°45'0 0.0
2017-Dec-08 05:48N 35°38' E 139°45'0 0.0
2017-Dec-08 03:59N 35°38' E 139°45'0 0.0
2017-Dec-08 03:00N 35°38' E 139°45'0 0.0
2017-Dec-08 02:30N 35°38' E 139°45'0 0.0
2017-Dec-08 01:44N 35°38' E 139°45'0 1.8
2017-Dec-08 01:30N 35°38' E 139°46'3 4.8
2017-Dec-08 00:59N 35°38' E 139°49'0 0.3
2017-Dec-08 00:28N 35°38' E 139°49'3 6.2
2017-Dec-08 00:00N 35°36' E 139°46'2 1.8
2017-Dec-07 22:56N 35°38' E 139°45'0 0.0
2017-Dec-07 20:12N 35°38' E 139°45'0 0.0
2017-Dec-07 19:49N 35°38' E 139°45'0 0.0
2017-Dec-07 19:29N 35°38' E 139°45'0 0.0
2017-Dec-07 18:57N 35°38' E 139°45'0 0.0
2017-Dec-07 18:28N 35°38' E 139°45'0 0.0
2017-Dec-07 17:54N 35°38' E 139°45'0 0.0
2017-Dec-07 17:26N 35°38' E 139°45'0 0.0
2017-Dec-07 16:57N 35°38' E 139°45'0 0.0
2017-Dec-07 16:29N 35°38' E 139°45'0 0.0
2017-Dec-07 16:00N 35°38' E 139°45'0 0.0
2017-Dec-07 15:27N 35°38' E 139°45'0 0.0
2017-Dec-07 15:00N 35°38' E 139°45'0 0.0
2017-Dec-07 14:21N 35°38' E 139°45'0 0.0
2017-Dec-07 13:58N 35°38' E 139°45'0 0.0
2017-Dec-07 13:30N 35°38' E 139°45'0 0.0
2017-Dec-07 12:50N 35°38' E 139°45'0 0.0
2017-Dec-07 12:00N 35°38' E 139°45'0 0.3
2017-Dec-07 11:30N 35°38' E 139°45'510.4
2017-Dec-07 11:00N 35°34' E 139°49'611.3
2017-Dec-07 10:31N 35°28' E 139°48'612.5
2017-Dec-07 10:01N 35°23' E 139°45'611.3
2017-Dec-07 09:31N 35°17' E 139°46'611.8
2017-Dec-07 09:00N 35°11' E 139°47'612.3
2017-Dec-07 08:31N 35°05' E 139°45'713.3
2017-Dec-07 08:00N 34°58' E 139°44'  
2017-Dec-04 09:05N 35°38' E 139°45'0 0.1
2017-Dec-04 08:58N 35°38' E 139°45'0 0.0
2017-Dec-04 08:31N 35°38' E 139°45'0 0.0
2017-Dec-04 08:00N 35°38' E 139°45'0 0.0
2017-Dec-04 07:30N 35°38' E 139°45'0 0.0
2017-Dec-04 07:00N 35°38' E 139°45'0 0.0
2017-Dec-04 06:15N 35°38' E 139°45'0 0.0
2017-Dec-04 06:00N 35°38' E 139°45'0 0.0
2017-Dec-04 04:15N 35°38' E 139°45'0 0.0
2017-Dec-04 03:59N 35°38' E 139°45'0 0.0
2017-Dec-04 03:30N 35°38' E 139°45'0 0.0
2017-Dec-04 03:00N 35°38' E 139°45'0 0.0
2017-Dec-04 02:28N 35°38' E 139°45'0 0.0
2017-Dec-04 02:00N 35°38' E 139°45'0 0.0
2017-Dec-04 01:30N 35°38' E 139°45'0 0.0
2017-Dec-04 01:00N 35°38' E 139°45'0 0.0
2017-Dec-04 00:30N 35°38' E 139°45'0 0.0
2017-Dec-04 00:00N 35°38' E 139°45'0 0.0
2017-Dec-03 22:29N 35°38' E 139°45'0 0.0
2017-Dec-03 22:00N 35°38' E 139°45'0 0.0
2017-Dec-03 21:04N 35°38' E 139°45'0 0.0
2017-Dec-03 20:54N 35°38' E 139°45'0 0.0
2017-Dec-03 20:30N 35°38' E 139°45'0 0.0
2017-Dec-03 19:59N 35°38' E 139°45'0 0.0
2017-Dec-03 17:57N 35°38' E 139°45'0 0.0
2017-Dec-03 17:29N 35°38' E 139°45'0 0.0
2017-Dec-03 17:00N 35°38' E 139°45'0 0.0
2017-Dec-03 16:30N 35°38' E 139°45'0 0.0
2017-Dec-03 16:00N 35°38' E 139°45'0 0.0
2017-Dec-03 15:30N 35°38' E 139°45'0 0.0
2017-Dec-03 12:39N 35°38' E 139°45'0 0.0
2017-Dec-03 12:26N 35°38' E 139°45'0 0.0
2017-Dec-03 11:59N 35°38' E 139°45'0 0.0
2017-Dec-03 11:28N 35°38' E 139°45'0 0.0
2017-Dec-03 10:59N 35°38' E 139°45'0 0.0
2017-Dec-03 10:30N 35°38' E 139°45'0 0.0
2017-Dec-03 09:58N 35°38' E 139°45'0 0.0
2017-Dec-03 03:40N 35°38' E 139°45'0 0.0
2017-Dec-03 03:30N 35°38' E 139°45'0 0.0
2017-Dec-03 02:57N 35°38' E 139°45'0 0.0
2017-Dec-03 02:30N 35°38' E 139°45'0 0.0
2017-Dec-03 02:00N 35°38' E 139°45'0 0.0
2017-Dec-03 01:30N 35°38' E 139°45'0 0.0
2017-Dec-03 00:59N 35°38' E 139°45'0 0.0
2017-Dec-03 00:30N 35°38' E 139°45'0 0.0
2017-Dec-03 00:00N 35°38' E 139°45'0 0.0
2017-Dec-02 23:30N 35°38' E 139°45'0 0.0
2017-Dec-02 23:00N 35°38' E 139°45'0 0.0
2017-Dec-02 22:25N 35°38' E 139°45'0 0.0
2017-Dec-02 17:13N 35°38' E 139°45'0 0.0
2017-Dec-02 17:00N 35°38' E 139°45'0 0.0
2017-Dec-02 16:30N 35°38' E 139°45'0 0.0
2017-Dec-02 16:00N 35°38' E 139°45'0 0.0
2017-Dec-02 15:30N 35°38' E 139°45'0 0.0
2017-Dec-02 15:00N 35°38' E 139°45'0 0.0
2017-Dec-02 14:30N 35°38' E 139°45'0 0.0
2017-Dec-02 14:00N 35°38' E 139°45'0 0.0
2017-Dec-02 13:30N 35°38' E 139°45'0 0.0
2017-Dec-02 13:00N 35°38' E 139°45'0 0.0
2017-Dec-02 12:29N 35°38' E 139°45'0 0.0
2017-Dec-02 12:00N 35°38' E 139°45'0 0.0
2017-Dec-02 11:29N 35°38' E 139°45'0 0.0
2017-Dec-02 11:00N 35°38' E 139°45'0 0.0
2017-Dec-02 10:28N 35°38' E 139°45'0 0.0
2017-Dec-02 10:00N 35°38' E 139°45'0 0.0
2017-Dec-02 09:28N 35°38' E 139°45'0 0.0
2017-Dec-02 08:53N 35°38' E 139°45'0 0.6
2017-Dec-02 08:30N 35°38' E 139°45'4 7.7
2017-Dec-02 08:00N 35°35' E 139°48'5 9.9
2017-Dec-02 07:31N 35°30' E 139°48'612.2
2017-Dec-02 07:00N 35°24' E 139°46'611.7
2017-Dec-02 06:30N 35°18' E 139°44'611.8
2017-Dec-02 06:01N 35°13' E 139°47'612.2
2017-Dec-02 05:30N 35°07' E 139°46'712.9
2017-Dec-02 05:00N 35°01' E 139°44'2412.8
2017-Dec-02 03:06N 34°37' E 139°39'4 0.4
2017-Dec-01 17:52N 34°33' E 139°39'1313.2
2017-Dec-01 16:51N 34°46' E 139°42'1013.5
2017-Dec-01 16:09N 34°56' E 139°43'312.6
2017-Dec-01 15:56N 34°58' E 139°43'612.4
2017-Dec-01 15:30N 35°04' E 139°44'613.0
2017-Dec-01 15:01N 35°10' E 139°46'612.2
2017-Dec-01 14:30N 35°16' E 139°46'612.0
2017-Dec-01 14:01N 35°21' E 139°42'611.9
2017-Dec-01 13:31N 35°27' E 139°46'612.6
2017-Dec-01 13:00N 35°32' E 139°50'612.1
2017-Dec-01 12:30N 35°37' E 139°46'1 2.3
2017-Dec-01 12:01N 35°38' E 139°45'0 0.0
2017-Dec-01 11:31N 35°38' E 139°45'0 0.0
2017-Dec-01 11:01N 35°38' E 139°45'  

Dump ship's entire track history